sensor_id;sensor_type;location;lat;lon;timestamp;P1;durP1;ratioP1;P2;durP2;ratioP2
13731;SDS011;6937;56.096;12.664;2022-12-18T00:00:46;16.57;;;12.73;;
13731;SDS011;6937;56.096;12.664;2022-12-18T00:03:12;16.83;;;12.53;;
13731;SDS011;6937;56.096;12.664;2022-12-18T00:05:45;19.50;;;13.30;;
13731;SDS011;6937;56.096;12.664;2022-12-18T00:08:14;17.27;;;12.93;;
13731;SDS011;6937;56.096;12.664;2022-12-18T00:10:40;17.10;;;11.93;;
13731;SDS011;6937;56.096;12.664;2022-12-18T00:13:07;17.60;;;13.57;;
13731;SDS011;6937;56.096;12.664;2022-12-18T00:15:36;17.47;;;11.60;;
13731;SDS011;6937;56.096;12.664;2022-12-18T00:18:03;17.13;;;10.93;;
13731;SDS011;6937;56.096;12.664;2022-12-18T00:20:28;20.03;;;12.50;;
13731;SDS011;6937;56.096;12.664;2022-12-18T00:22:54;17.73;;;11.83;;
13731;SDS011;6937;56.096;12.664;2022-12-18T00:25:20;19.77;;;11.50;;
13731;SDS011;6937;56.096;12.664;2022-12-18T00:27:46;16.98;;;13.18;;
13731;SDS011;6937;56.096;12.664;2022-12-18T00:30:11;20.93;;;13.33;;
13731;SDS011;6937;56.096;12.664;2022-12-18T00:32:36;19.93;;;12.63;;
13731;SDS011;6937;56.096;12.664;2022-12-18T00:35:02;20.00;;;12.67;;
13731;SDS011;6937;56.096;12.664;2022-12-18T00:37:28;15.80;;;12.00;;
13731;SDS011;6937;56.096;12.664;2022-12-18T00:39:54;19.97;;;11.93;;
13731;SDS011;6937;56.096;12.664;2022-12-18T00:42:19;19.95;;;12.77;;
13731;SDS011;6937;56.096;12.664;2022-12-18T00:45:03;20.33;;;12.70;;
13731;SDS011;6937;56.096;12.664;2022-12-18T00:47:29;18.87;;;12.50;;
13731;SDS011;6937;56.096;12.664;2022-12-18T00:49:54;17.73;;;11.17;;
13731;SDS011;6937;56.096;12.664;2022-12-18T00:52:20;19.80;;;12.38;;
13731;SDS011;6937;56.096;12.664;2022-12-18T00:54:45;20.63;;;12.70;;
13731;SDS011;6937;56.096;12.664;2022-12-18T00:57:10;19.03;;;11.53;;
13731;SDS011;6937;56.096;12.664;2022-12-18T00:59:36;20.03;;;11.57;;
13731;SDS011;6937;56.096;12.664;2022-12-18T01:02:01;18.27;;;12.17;;
13731;SDS011;6937;56.096;12.664;2022-12-18T01:04:27;18.83;;;11.43;;
13731;SDS011;6937;56.096;12.664;2022-12-18T01:06:53;17.33;;;10.97;;
13731;SDS011;6937;56.096;12.664;2022-12-18T01:09:19;17.77;;;11.43;;
13731;SDS011;6937;56.096;12.664;2022-12-18T01:11:44;18.97;;;10.77;;
13731;SDS011;6937;56.096;12.664;2022-12-18T01:14:09;19.27;;;11.30;;
13731;SDS011;6937;56.096;12.664;2022-12-18T01:16:35;15.33;;;10.27;;
13731;SDS011;6937;56.096;12.664;2022-12-18T01:19:00;14.87;;;9.97;;
13731;SDS011;6937;56.096;12.664;2022-12-18T01:21:25;19.23;;;10.38;;
13731;SDS011;6937;56.096;12.664;2022-12-18T01:23:52;15.90;;;9.90;;
13731;SDS011;6937;56.096;12.664;2022-12-18T01:26:18;16.17;;;10.45;;
13731;SDS011;6937;56.096;12.664;2022-12-18T01:28:44;15.47;;;9.73;;
13731;SDS011;6937;56.096;12.664;2022-12-18T01:31:13;20.37;;;9.93;;
13731;SDS011;6937;56.096;12.664;2022-12-18T01:33:48;13.47;;;9.23;;
13731;SDS011;6937;56.096;12.664;2022-12-18T01:36:24;12.27;;;8.70;;
13731;SDS011;6937;56.096;12.664;2022-12-18T01:38:51;12.60;;;8.43;;
13731;SDS011;6937;56.096;12.664;2022-12-18T01:41:18;13.80;;;8.67;;
13731;SDS011;6937;56.096;12.664;2022-12-18T01:43:47;13.90;;;8.60;;
13731;SDS011;6937;56.096;12.664;2022-12-18T01:46:15;12.70;;;8.03;;
13731;SDS011;6937;56.096;12.664;2022-12-18T01:48:42;11.47;;;7.20;;
13731;SDS011;6937;56.096;12.664;2022-12-18T01:51:09;13.80;;;7.72;;
13731;SDS011;6937;56.096;12.664;2022-12-18T01:53:36;13.75;;;6.97;;
13731;SDS011;6937;56.096;12.664;2022-12-18T01:56:03;14.47;;;7.33;;
13731;SDS011;6937;56.096;12.664;2022-12-18T02:01:34;11.17;;;7.73;;
13731;SDS011;6937;56.096;12.664;2022-12-18T02:06:49;10.35;;;7.00;;
13731;SDS011;6937;56.096;12.664;2022-12-18T02:09:33;10.77;;;6.77;;
13731;SDS011;6937;56.096;12.664;2022-12-18T02:17:18;9.17;;;5.80;;
13731;SDS011;6937;56.096;12.664;2022-12-18T02:28:49;9.57;;;6.00;;
13731;SDS011;6937;56.096;12.664;2022-12-18T02:31:19;10.38;;;6.50;;
13731;SDS011;6937;56.096;12.664;2022-12-18T02:33:48;13.00;;;7.23;;
13731;SDS011;6937;56.096;12.664;2022-12-18T02:36:17;11.83;;;6.90;;
13731;SDS011;6937;56.096;12.664;2022-12-18T02:38:45;11.95;;;7.20;;
13731;SDS011;6937;56.096;12.664;2022-12-18T02:41:11;12.00;;;7.37;;
13731;SDS011;6937;56.096;12.664;2022-12-18T02:43:39;11.00;;;6.90;;
13731;SDS011;6937;56.096;12.664;2022-12-18T02:48:52;11.68;;;7.22;;
13731;SDS011;6937;56.096;12.664;2022-12-18T02:51:30;10.50;;;7.30;;
13731;SDS011;6937;56.096;12.664;2022-12-18T02:54:14;13.25;;;7.38;;
13731;SDS011;6937;56.096;12.664;2022-12-18T02:56:51;12.88;;;7.32;;
13731;SDS011;6937;56.096;12.664;2022-12-18T02:59:25;13.97;;;7.47;;
13731;SDS011;6937;56.096;12.664;2022-12-18T03:02:07;10.47;;;6.63;;
13731;SDS011;6937;56.096;12.664;2022-12-18T03:04:47;10.95;;;6.57;;
13731;SDS011;6937;56.096;12.664;2022-12-18T03:07:21;9.65;;;6.13;;
13731;SDS011;6937;56.096;12.664;2022-12-18T03:09:59;9.82;;;6.78;;
13731;SDS011;6937;56.096;12.664;2022-12-18T03:12:29;8.68;;;6.10;;
13731;SDS011;6937;56.096;12.664;2022-12-18T03:15:02;9.97;;;6.40;;
13731;SDS011;6937;56.096;12.664;2022-12-18T03:17:34;10.20;;;6.80;;
13731;SDS011;6937;56.096;12.664;2022-12-18T03:20:03;8.70;;;6.20;;
13731;SDS011;6937;56.096;12.664;2022-12-18T03:22:33;9.57;;;6.63;;
13731;SDS011;6937;56.096;12.664;2022-12-18T03:25:04;9.83;;;6.97;;
13731;SDS011;6937;56.096;12.664;2022-12-18T03:27:32;11.63;;;6.70;;
13731;SDS011;6937;56.096;12.664;2022-12-18T03:30:05;12.32;;;6.75;;
13731;SDS011;6937;56.096;12.664;2022-12-18T03:32:35;9.53;;;6.60;;
13731;SDS011;6937;56.096;12.664;2022-12-18T03:35:23;9.83;;;6.60;;
13731;SDS011;6937;56.096;12.664;2022-12-18T03:37:53;10.67;;;7.07;;
13731;SDS011;6937;56.096;12.664;2022-12-18T03:40:20;11.30;;;6.97;;
13731;SDS011;6937;56.096;12.664;2022-12-18T03:42:51;12.88;;;7.15;;
13731;SDS011;6937;56.096;12.664;2022-12-18T03:45:26;9.75;;;6.60;;
13731;SDS011;6937;56.096;12.664;2022-12-18T03:55:39;11.50;;;7.35;;
13731;SDS011;6937;56.096;12.664;2022-12-18T03:58:06;13.43;;;7.88;;
13731;SDS011;6937;56.096;12.664;2022-12-18T04:00:34;15.48;;;7.97;;
13731;SDS011;6937;56.096;12.664;2022-12-18T04:02:59;10.50;;;7.23;;
13731;SDS011;6937;56.096;12.664;2022-12-18T04:05:26;10.38;;;7.50;;
13731;SDS011;6937;56.096;12.664;2022-12-18T04:07:53;11.77;;;6.80;;
13731;SDS011;6937;56.096;12.664;2022-12-18T04:10:21;13.80;;;8.20;;
13731;SDS011;6937;56.096;12.664;2022-12-18T04:12:47;9.83;;;7.43;;
13731;SDS011;6937;56.096;12.664;2022-12-18T04:15:12;10.70;;;7.70;;
13731;SDS011;6937;56.096;12.664;2022-12-18T04:17:38;13.87;;;8.40;;
13731;SDS011;6937;56.096;12.664;2022-12-18T04:20:08;11.57;;;7.43;;
13731;SDS011;6937;56.096;12.664;2022-12-18T04:22:33;11.23;;;7.53;;
13731;SDS011;6937;56.096;12.664;2022-12-18T04:25:00;12.07;;;8.50;;
13731;SDS011;6937;56.096;12.664;2022-12-18T04:27:25;10.67;;;7.70;;
13731;SDS011;6937;56.096;12.664;2022-12-18T04:29:51;11.03;;;7.20;;
13731;SDS011;6937;56.096;12.664;2022-12-18T04:32:16;10.75;;;7.25;;
13731;SDS011;6937;56.096;12.664;2022-12-18T04:34:41;12.20;;;7.90;;
13731;SDS011;6937;56.096;12.664;2022-12-18T04:37:07;13.73;;;8.23;;
13731;SDS011;6937;56.096;12.664;2022-12-18T04:39:33;12.88;;;7.57;;
13731;SDS011;6937;56.096;12.664;2022-12-18T04:41:58;9.65;;;7.07;;
13731;SDS011;6937;56.096;12.664;2022-12-18T04:44:24;14.00;;;7.53;;
13731;SDS011;6937;56.096;12.664;2022-12-18T04:46:50;11.03;;;7.27;;
13731;SDS011;6937;56.096;12.664;2022-12-18T04:49:15;11.57;;;6.87;;
13731;SDS011;6937;56.096;12.664;2022-12-18T04:51:40;10.40;;;6.93;;
13731;SDS011;6937;56.096;12.664;2022-12-18T04:54:06;11.57;;;6.97;;
13731;SDS011;6937;56.096;12.664;2022-12-18T04:56:31;11.67;;;7.30;;
13731;SDS011;6937;56.096;12.664;2022-12-18T04:58:57;11.40;;;7.50;;
13731;SDS011;6937;56.096;12.664;2022-12-18T05:01:22;11.20;;;7.03;;
13731;SDS011;6937;56.096;12.664;2022-12-18T05:03:48;8.20;;;6.47;;
13731;SDS011;6937;56.096;12.664;2022-12-18T05:06:13;10.63;;;7.10;;
13731;SDS011;6937;56.096;12.664;2022-12-18T05:08:39;11.98;;;6.72;;
13731;SDS011;6937;56.096;12.664;2022-12-18T05:11:05;8.60;;;6.20;;
13731;SDS011;6937;56.096;12.664;2022-12-18T05:13:33;17.40;;;6.33;;
13731;SDS011;6937;56.096;12.664;2022-12-18T05:15:59;10.80;;;6.67;;
13731;SDS011;6937;56.096;12.664;2022-12-18T05:18:25;9.43;;;6.73;;
13731;SDS011;6937;56.096;12.664;2022-12-18T05:20:51;10.05;;;6.70;;
13731;SDS011;6937;56.096;12.664;2022-12-18T05:23:17;11.93;;;7.18;;
13731;SDS011;6937;56.096;12.664;2022-12-18T05:25:42;10.23;;;6.82;;
13731;SDS011;6937;56.096;12.664;2022-12-18T05:28:14;9.02;;;6.15;;
13731;SDS011;6937;56.096;12.664;2022-12-18T05:30:39;11.32;;;6.68;;
13731;SDS011;6937;56.096;12.664;2022-12-18T05:33:07;8.65;;;6.80;;
13731;SDS011;6937;56.096;12.664;2022-12-18T05:35:33;9.53;;;6.40;;
13731;SDS011;6937;56.096;12.664;2022-12-18T05:37:58;11.10;;;6.57;;
13731;SDS011;6937;56.096;12.664;2022-12-18T05:40:23;8.97;;;6.30;;
13731;SDS011;6937;56.096;12.664;2022-12-18T05:42:49;12.02;;;6.57;;
13731;SDS011;6937;56.096;12.664;2022-12-18T05:45:14;9.45;;;6.78;;
13731;SDS011;6937;56.096;12.664;2022-12-18T05:47:39;9.43;;;6.75;;
13731;SDS011;6937;56.096;12.664;2022-12-18T05:50:05;10.43;;;6.90;;
13731;SDS011;6937;56.096;12.664;2022-12-18T05:52:31;10.35;;;6.57;;
13731;SDS011;6937;56.096;12.664;2022-12-18T05:54:57;7.93;;;6.40;;
13731;SDS011;6937;56.096;12.664;2022-12-18T05:57:23;9.20;;;6.75;;
13731;SDS011;6937;56.096;12.664;2022-12-18T05:59:49;8.90;;;6.53;;
13731;SDS011;6937;56.096;12.664;2022-12-18T06:02:14;10.23;;;6.45;;
13731;SDS011;6937;56.096;12.664;2022-12-18T06:04:39;7.88;;;6.22;;
13731;SDS011;6937;56.096;12.664;2022-12-18T06:07:05;9.83;;;6.90;;
13731;SDS011;6937;56.096;12.664;2022-12-18T06:09:30;9.87;;;7.03;;
13731;SDS011;6937;56.096;12.664;2022-12-18T06:11:55;10.20;;;6.70;;
13731;SDS011;6937;56.096;12.664;2022-12-18T06:14:21;9.33;;;6.77;;
13731;SDS011;6937;56.096;12.664;2022-12-18T06:16:46;10.77;;;7.40;;
13731;SDS011;6937;56.096;12.664;2022-12-18T06:19:13;11.97;;;7.37;;
13731;SDS011;6937;56.096;12.664;2022-12-18T06:21:40;10.20;;;7.30;;
13731;SDS011;6937;56.096;12.664;2022-12-18T06:24:06;8.48;;;6.97;;
13731;SDS011;6937;56.096;12.664;2022-12-18T06:26:32;9.67;;;7.33;;
13731;SDS011;6937;56.096;12.664;2022-12-18T06:28:57;9.67;;;7.50;;
13731;SDS011;6937;56.096;12.664;2022-12-18T06:31:22;9.27;;;7.00;;
13731;SDS011;6937;56.096;12.664;2022-12-18T06:33:48;11.00;;;6.95;;
13731;SDS011;6937;56.096;12.664;2022-12-18T06:36:13;11.20;;;7.72;;
13731;SDS011;6937;56.096;12.664;2022-12-18T06:38:40;10.63;;;7.43;;
13731;SDS011;6937;56.096;12.664;2022-12-18T06:41:10;9.38;;;6.85;;
13731;SDS011;6937;56.096;12.664;2022-12-18T06:43:41;10.90;;;7.75;;
13731;SDS011;6937;56.096;12.664;2022-12-18T06:46:06;11.68;;;7.90;;
13731;SDS011;6937;56.096;12.664;2022-12-18T06:48:32;10.67;;;7.67;;
13731;SDS011;6937;56.096;12.664;2022-12-18T06:50:57;9.23;;;8.10;;
13731;SDS011;6937;56.096;12.664;2022-12-18T06:53:23;10.57;;;7.60;;
13731;SDS011;6937;56.096;12.664;2022-12-18T06:55:48;10.07;;;7.43;;
13731;SDS011;6937;56.096;12.664;2022-12-18T06:58:14;9.93;;;7.43;;
13731;SDS011;6937;56.096;12.664;2022-12-18T07:00:40;11.10;;;7.97;;
13731;SDS011;6937;56.096;12.664;2022-12-18T07:03:06;10.75;;;7.90;;
13731;SDS011;6937;56.096;12.664;2022-12-18T07:05:31;12.13;;;7.80;;
13731;SDS011;6937;56.096;12.664;2022-12-18T07:07:57;13.40;;;8.27;;
13731;SDS011;6937;56.096;12.664;2022-12-18T07:10:23;11.23;;;8.07;;
13731;SDS011;6937;56.096;12.664;2022-12-18T07:12:48;10.23;;;7.97;;
13731;SDS011;6937;56.096;12.664;2022-12-18T07:15:14;10.00;;;7.70;;
13731;SDS011;6937;56.096;12.664;2022-12-18T07:17:39;11.23;;;7.77;;
13731;SDS011;6937;56.096;12.664;2022-12-18T07:20:05;14.10;;;8.63;;
13731;SDS011;6937;56.096;12.664;2022-12-18T07:22:31;11.43;;;8.20;;
13731;SDS011;6937;56.096;12.664;2022-12-18T07:24:56;11.73;;;8.17;;
13731;SDS011;6937;56.096;12.664;2022-12-18T07:27:22;10.47;;;8.43;;
13731;SDS011;6937;56.096;12.664;2022-12-18T07:29:48;11.45;;;7.82;;
13731;SDS011;6937;56.096;12.664;2022-12-18T07:32:13;9.90;;;7.28;;
13731;SDS011;6937;56.096;12.664;2022-12-18T07:34:39;10.83;;;7.50;;
13731;SDS011;6937;56.096;12.664;2022-12-18T07:37:04;12.47;;;7.93;;
13731;SDS011;6937;56.096;12.664;2022-12-18T07:39:30;10.50;;;7.30;;
13731;SDS011;6937;56.096;12.664;2022-12-18T07:41:55;9.47;;;7.20;;
13731;SDS011;6937;56.096;12.664;2022-12-18T07:44:39;9.40;;;6.87;;
13731;SDS011;6937;56.096;12.664;2022-12-18T07:47:05;10.38;;;7.07;;
13731;SDS011;6937;56.096;12.664;2022-12-18T07:49:30;9.63;;;7.27;;
13731;SDS011;6937;56.096;12.664;2022-12-18T07:51:56;9.18;;;6.63;;
13731;SDS011;6937;56.096;12.664;2022-12-18T07:54:22;9.23;;;7.03;;
13731;SDS011;6937;56.096;12.664;2022-12-18T07:56:49;13.73;;;7.38;;
13731;SDS011;6937;56.096;12.664;2022-12-18T07:59:15;13.45;;;7.38;;
13731;SDS011;6937;56.096;12.664;2022-12-18T08:01:40;10.30;;;7.43;;
13731;SDS011;6937;56.096;12.664;2022-12-18T08:04:05;10.10;;;6.77;;
13731;SDS011;6937;56.096;12.664;2022-12-18T08:06:31;11.57;;;7.32;;
13731;SDS011;6937;56.096;12.664;2022-12-18T08:08:57;10.35;;;6.63;;
13731;SDS011;6937;56.096;12.664;2022-12-18T08:11:23;11.38;;;7.20;;
13731;SDS011;6937;56.096;12.664;2022-12-18T08:13:49;12.07;;;7.20;;
13731;SDS011;6937;56.096;12.664;2022-12-18T08:16:15;9.23;;;7.30;;
13731;SDS011;6937;56.096;12.664;2022-12-18T08:18:41;8.77;;;6.82;;
13731;SDS011;6937;56.096;12.664;2022-12-18T08:21:10;11.02;;;7.50;;
13731;SDS011;6937;56.096;12.664;2022-12-18T08:23:37;10.27;;;7.40;;
13731;SDS011;6937;56.096;12.664;2022-12-18T08:26:03;9.77;;;7.13;;
13731;SDS011;6937;56.096;12.664;2022-12-18T08:28:28;11.60;;;7.00;;
13731;SDS011;6937;56.096;12.664;2022-12-18T08:30:54;11.80;;;7.20;;
13731;SDS011;6937;56.096;12.664;2022-12-18T08:33:19;11.10;;;7.43;;
13731;SDS011;6937;56.096;12.664;2022-12-18T08:35:44;9.77;;;7.38;;
13731;SDS011;6937;56.096;12.664;2022-12-18T08:38:10;10.73;;;7.47;;
13731;SDS011;6937;56.096;12.664;2022-12-18T08:40:35;10.73;;;7.30;;
13731;SDS011;6937;56.096;12.664;2022-12-18T08:43:01;9.45;;;6.82;;
13731;SDS011;6937;56.096;12.664;2022-12-18T08:45:44;8.90;;;6.77;;
13731;SDS011;6937;56.096;12.664;2022-12-18T08:48:10;10.03;;;7.60;;
13731;SDS011;6937;56.096;12.664;2022-12-18T08:50:35;10.23;;;6.93;;
13731;SDS011;6937;56.096;12.664;2022-12-18T08:53:01;8.97;;;6.63;;
13731;SDS011;6937;56.096;12.664;2022-12-18T08:55:26;8.55;;;6.63;;
13731;SDS011;6937;56.096;12.664;2022-12-18T08:57:51;11.60;;;6.55;;
13731;SDS011;6937;56.096;12.664;2022-12-18T09:00:17;10.27;;;7.17;;
13731;SDS011;6937;56.096;12.664;2022-12-18T09:02:42;8.87;;;6.40;;
13731;SDS011;6937;56.096;12.664;2022-12-18T09:05:08;10.07;;;6.57;;
13731;SDS011;6937;56.096;12.664;2022-12-18T09:07:33;9.50;;;7.13;;
13731;SDS011;6937;56.096;12.664;2022-12-18T09:09:59;9.57;;;6.37;;
13731;SDS011;6937;56.096;12.664;2022-12-18T09:12:24;9.37;;;6.73;;
13731;SDS011;6937;56.096;12.664;2022-12-18T09:14:49;12.07;;;7.28;;
13731;SDS011;6937;56.096;12.664;2022-12-18T09:17:15;8.05;;;6.57;;
13731;SDS011;6937;56.096;12.664;2022-12-18T09:19:40;12.53;;;7.20;;
13731;SDS011;6937;56.096;12.664;2022-12-18T09:22:06;10.67;;;7.00;;
13731;SDS011;6937;56.096;12.664;2022-12-18T09:24:31;9.70;;;7.37;;
13731;SDS011;6937;56.096;12.664;2022-12-18T09:26:56;10.83;;;7.43;;
13731;SDS011;6937;56.096;12.664;2022-12-18T09:29:22;11.33;;;7.53;;
13731;SDS011;6937;56.096;12.664;2022-12-18T09:31:47;12.27;;;7.80;;
13731;SDS011;6937;56.096;12.664;2022-12-18T09:34:14;9.93;;;7.25;;
13731;SDS011;6937;56.096;12.664;2022-12-18T09:36:39;10.18;;;7.00;;
13731;SDS011;6937;56.096;12.664;2022-12-18T09:39:05;8.83;;;7.07;;
13731;SDS011;6937;56.096;12.664;2022-12-18T09:46:59;9.57;;;7.43;;
13731;SDS011;6937;56.096;12.664;2022-12-18T09:49:47;10.02;;;7.10;;
13731;SDS011;6937;56.096;12.664;2022-12-18T09:55:01;10.97;;;7.23;;
13731;SDS011;6937;56.096;12.664;2022-12-18T09:57:34;10.67;;;7.87;;
13731;SDS011;6937;56.096;12.664;2022-12-18T10:00:06;10.85;;;7.30;;
13731;SDS011;6937;56.096;12.664;2022-12-18T10:02:40;8.43;;;6.82;;
13731;SDS011;6937;56.096;12.664;2022-12-18T10:05:52;9.05;;;7.07;;
13731;SDS011;6937;56.096;12.664;2022-12-18T10:08:16;12.13;;;7.22;;
13731;SDS011;6937;56.096;12.664;2022-12-18T10:10:48;10.53;;;7.23;;
13731;SDS011;6937;56.096;12.664;2022-12-18T10:13:23;11.20;;;7.77;;
13731;SDS011;6937;56.096;12.664;2022-12-18T10:16:04;11.50;;;7.77;;
13731;SDS011;6937;56.096;12.664;2022-12-18T10:21:26;9.80;;;7.47;;
13731;SDS011;6937;56.096;12.664;2022-12-18T10:24:19;8.77;;;6.73;;
13731;SDS011;6937;56.096;12.664;2022-12-18T10:26:49;10.23;;;7.53;;
13731;SDS011;6937;56.096;12.664;2022-12-18T10:29:17;9.73;;;7.23;;
13731;SDS011;6937;56.096;12.664;2022-12-18T10:31:44;10.15;;;7.10;;
13731;SDS011;6937;56.096;12.664;2022-12-18T10:34:10;9.90;;;7.33;;
13731;SDS011;6937;56.096;12.664;2022-12-18T10:36:40;10.63;;;7.73;;
13731;SDS011;6937;56.096;12.664;2022-12-18T10:39:20;9.40;;;6.90;;
13731;SDS011;6937;56.096;12.664;2022-12-18T10:41:48;10.23;;;7.73;;
13731;SDS011;6937;56.096;12.664;2022-12-18T10:44:20;11.05;;;7.68;;
13731;SDS011;6937;56.096;12.664;2022-12-18T10:46:51;9.63;;;7.40;;
13731;SDS011;6937;56.096;12.664;2022-12-18T10:49:24;8.80;;;7.40;;
13731;SDS011;6937;56.096;12.664;2022-12-18T10:52:03;11.00;;;7.80;;
13731;SDS011;6937;56.096;12.664;2022-12-18T10:54:37;9.18;;;7.07;;
13731;SDS011;6937;56.096;12.664;2022-12-18T10:57:16;11.65;;;7.90;;
13731;SDS011;6937;56.096;12.664;2022-12-18T10:59:53;11.63;;;7.70;;
13731;SDS011;6937;56.096;12.664;2022-12-18T11:02:28;9.63;;;7.35;;
13731;SDS011;6937;56.096;12.664;2022-12-18T11:04:59;9.57;;;7.82;;
13731;SDS011;6937;56.096;12.664;2022-12-18T11:07:25;10.88;;;7.57;;
13731;SDS011;6937;56.096;12.664;2022-12-18T11:10:00;9.98;;;7.72;;
13731;SDS011;6937;56.096;12.664;2022-12-18T11:12:28;11.63;;;8.07;;
13731;SDS011;6937;56.096;12.664;2022-12-18T11:14:54;10.90;;;7.78;;
13731;SDS011;6937;56.096;12.664;2022-12-18T11:17:31;12.13;;;8.50;;
13731;SDS011;6937;56.096;12.664;2022-12-18T11:20:07;11.02;;;7.68;;
13731;SDS011;6937;56.096;12.664;2022-12-18T11:22:59;11.50;;;7.75;;
13731;SDS011;6937;56.096;12.664;2022-12-18T11:25:27;9.13;;;7.63;;
13731;SDS011;6937;56.096;12.664;2022-12-18T11:27:55;9.15;;;7.88;;
13731;SDS011;6937;56.096;12.664;2022-12-18T11:30:30;11.38;;;8.43;;
13731;SDS011;6937;56.096;12.664;2022-12-18T11:38:23;12.53;;;8.30;;
13731;SDS011;6937;56.096;12.664;2022-12-18T11:43:31;12.13;;;8.57;;
13731;SDS011;6937;56.096;12.664;2022-12-18T11:46:07;11.73;;;8.95;;
13731;SDS011;6937;56.096;12.664;2022-12-18T11:48:43;11.67;;;8.37;;
13731;SDS011;6937;56.096;12.664;2022-12-18T11:51:25;11.63;;;8.63;;
13731;SDS011;6937;56.096;12.664;2022-12-18T11:53:55;11.38;;;8.25;;
13731;SDS011;6937;56.096;12.664;2022-12-18T11:56:34;11.43;;;8.48;;
13731;SDS011;6937;56.096;12.664;2022-12-18T12:02:01;10.67;;;8.50;;
13731;SDS011;6937;56.096;12.664;2022-12-18T12:08:08;12.40;;;8.40;;
13731;SDS011;6937;56.096;12.664;2022-12-18T12:13:39;10.70;;;8.10;;
13731;SDS011;6937;56.096;12.664;2022-12-18T12:16:31;11.00;;;8.07;;
13731;SDS011;6937;56.096;12.664;2022-12-18T12:19:37;9.68;;;8.10;;
13731;SDS011;6937;56.096;12.664;2022-12-18T12:22:37;10.18;;;8.73;;
13731;SDS011;6937;56.096;12.664;2022-12-18T12:25:37;10.67;;;8.40;;
13731;SDS011;6937;56.096;12.664;2022-12-18T12:31:26;10.50;;;8.27;;
13731;SDS011;6937;56.096;12.664;2022-12-18T12:34:18;12.35;;;8.23;;
13731;SDS011;6937;56.096;12.664;2022-12-18T12:36:53;12.27;;;8.50;;
13731;SDS011;6937;56.096;12.664;2022-12-18T12:39:31;10.75;;;7.68;;
13731;SDS011;6937;56.096;12.664;2022-12-18T12:42:02;10.13;;;8.15;;
13731;SDS011;6937;56.096;12.664;2022-12-18T12:44:54;11.25;;;8.13;;
13731;SDS011;6937;56.096;12.664;2022-12-18T12:47:25;12.57;;;8.37;;
13731;SDS011;6937;56.096;12.664;2022-12-18T12:49:55;11.05;;;8.13;;
13731;SDS011;6937;56.096;12.664;2022-12-18T12:55:04;10.05;;;7.78;;
13731;SDS011;6937;56.096;12.664;2022-12-18T12:57:36;10.50;;;8.07;;
13731;SDS011;6937;56.096;12.664;2022-12-18T13:00:09;12.70;;;8.70;;
13731;SDS011;6937;56.096;12.664;2022-12-18T13:05:22;9.63;;;8.43;;
13731;SDS011;6937;56.096;12.664;2022-12-18T13:08:08;11.50;;;8.07;;
13731;SDS011;6937;56.096;12.664;2022-12-18T13:10:37;11.67;;;8.43;;
13731;SDS011;6937;56.096;12.664;2022-12-18T13:13:10;13.17;;;8.37;;
13731;SDS011;6937;56.096;12.664;2022-12-18T13:15:44;10.53;;;8.57;;
13731;SDS011;6937;56.096;12.664;2022-12-18T13:18:15;10.73;;;8.40;;
13731;SDS011;6937;56.096;12.664;2022-12-18T13:25:52;10.53;;;8.80;;
13731;SDS011;6937;56.096;12.664;2022-12-18T13:31:12;12.55;;;9.15;;
13731;SDS011;6937;56.096;12.664;2022-12-18T13:36:47;11.67;;;8.30;;
13731;SDS011;6937;56.096;12.664;2022-12-18T13:41:47;10.17;;;8.10;;
13731;SDS011;6937;56.096;12.664;2022-12-18T13:44:33;14.20;;;8.97;;
13731;SDS011;6937;56.096;12.664;2022-12-18T13:47:04;11.53;;;8.93;;
13731;SDS011;6937;56.096;12.664;2022-12-18T13:49:40;14.27;;;9.30;;
13731;SDS011;6937;56.096;12.664;2022-12-18T13:52:18;14.30;;;8.87;;
13731;SDS011;6937;56.096;12.664;2022-12-18T13:54:51;11.47;;;9.10;;
13731;SDS011;6937;56.096;12.664;2022-12-18T13:57:34;12.47;;;8.97;;
13731;SDS011;6937;56.096;12.664;2022-12-18T14:02:47;11.73;;;8.73;;
13731;SDS011;6937;56.096;12.664;2022-12-18T14:07:47;12.55;;;9.27;;
13731;SDS011;6937;56.096;12.664;2022-12-18T14:10:13;11.77;;;8.75;;
13731;SDS011;6937;56.096;12.664;2022-12-18T14:12:44;12.90;;;8.63;;
13731;SDS011;6937;56.096;12.664;2022-12-18T14:20:39;12.67;;;8.17;;
13731;SDS011;6937;56.096;12.664;2022-12-18T14:23:30;11.17;;;8.47;;
13731;SDS011;6937;56.096;12.664;2022-12-18T14:26:03;12.20;;;8.33;;
13731;SDS011;6937;56.096;12.664;2022-12-18T14:28:48;10.77;;;7.67;;
13731;SDS011;6937;56.096;12.664;2022-12-18T14:31:20;11.60;;;7.87;;
13731;SDS011;6937;56.096;12.664;2022-12-18T14:33:47;9.57;;;7.00;;
13731;SDS011;6937;56.096;12.664;2022-12-18T14:36:15;10.50;;;7.70;;
13731;SDS011;6937;56.096;12.664;2022-12-18T14:38:42;9.20;;;6.55;;
13731;SDS011;6937;56.096;12.664;2022-12-18T14:41:13;9.90;;;7.13;;
13731;SDS011;6937;56.096;12.664;2022-12-18T14:43:41;9.80;;;7.17;;
13731;SDS011;6937;56.096;12.664;2022-12-18T14:49:01;9.27;;;6.57;;
13731;SDS011;6937;56.096;12.664;2022-12-18T14:51:47;8.00;;;7.07;;
13731;SDS011;6937;56.096;12.664;2022-12-18T14:54:15;11.17;;;7.80;;
13731;SDS011;6937;56.096;12.664;2022-12-18T14:56:44;12.73;;;7.43;;
13731;SDS011;6937;56.096;12.664;2022-12-18T14:59:16;11.57;;;6.93;;
13731;SDS011;6937;56.096;12.664;2022-12-18T15:01:47;9.43;;;6.90;;
13731;SDS011;6937;56.096;12.664;2022-12-18T15:07:13;9.77;;;7.00;;
13731;SDS011;6937;56.096;12.664;2022-12-18T15:09:42;10.73;;;7.37;;
13731;SDS011;6937;56.096;12.664;2022-12-18T15:21:18;8.10;;;6.37;;
13731;SDS011;6937;56.096;12.664;2022-12-18T15:26:24;7.67;;;6.33;;
13731;SDS011;6937;56.096;12.664;2022-12-18T15:28:50;9.07;;;5.97;;
13731;SDS011;6937;56.096;12.664;2022-12-18T15:31:31;8.67;;;5.80;;
13731;SDS011;6937;56.096;12.664;2022-12-18T15:34:10;9.20;;;5.77;;
13731;SDS011;6937;56.096;12.664;2022-12-18T15:36:37;9.63;;;5.77;;
13731;SDS011;6937;56.096;12.664;2022-12-18T15:39:03;8.60;;;6.23;;
13731;SDS011;6937;56.096;12.664;2022-12-18T15:41:30;8.17;;;5.80;;
13731;SDS011;6937;56.096;12.664;2022-12-18T15:43:58;8.43;;;5.80;;
13731;SDS011;6937;56.096;12.664;2022-12-18T15:46:24;8.70;;;5.60;;
13731;SDS011;6937;56.096;12.664;2022-12-18T15:48:53;7.63;;;5.43;;
13731;SDS011;6937;56.096;12.664;2022-12-18T15:51:21;7.50;;;5.50;;
13731;SDS011;6937;56.096;12.664;2022-12-18T15:53:50;7.50;;;5.67;;
13731;SDS011;6937;56.096;12.664;2022-12-18T15:56:18;9.57;;;5.30;;
13731;SDS011;6937;56.096;12.664;2022-12-18T15:59:02;6.30;;;4.53;;
13731;SDS011;6937;56.096;12.664;2022-12-18T16:01:41;7.47;;;5.13;;
13731;SDS011;6937;56.096;12.664;2022-12-18T16:04:12;7.70;;;5.30;;
13731;SDS011;6937;56.096;12.664;2022-12-18T16:06:39;9.83;;;5.37;;
13731;SDS011;6937;56.096;12.664;2022-12-18T16:09:05;8.17;;;5.20;;
13731;SDS011;6937;56.096;12.664;2022-12-18T16:11:31;7.93;;;4.23;;
13731;SDS011;6937;56.096;12.664;2022-12-18T16:16:45;7.57;;;4.47;;
13731;SDS011;6937;56.096;12.664;2022-12-18T16:19:13;8.20;;;5.10;;
13731;SDS011;6937;56.096;12.664;2022-12-18T16:21:38;6.53;;;3.83;;
13731;SDS011;6937;56.096;12.664;2022-12-18T16:24:04;8.10;;;4.63;;
13731;SDS011;6937;56.096;12.664;2022-12-18T16:26:32;6.77;;;4.70;;
13731;SDS011;6937;56.096;12.664;2022-12-18T16:28:57;6.67;;;4.77;;
13731;SDS011;6937;56.096;12.664;2022-12-18T16:31:22;8.17;;;4.50;;
13731;SDS011;6937;56.096;12.664;2022-12-18T16:33:48;8.40;;;4.50;;
13731;SDS011;6937;56.096;12.664;2022-12-18T16:36:13;7.50;;;4.73;;
13731;SDS011;6937;56.096;12.664;2022-12-18T16:38:39;8.27;;;5.43;;
13731;SDS011;6937;56.096;12.664;2022-12-18T16:41:17;8.10;;;5.20;;
13731;SDS011;6937;56.096;12.664;2022-12-18T16:43:56;8.57;;;5.30;;